Tropical Cyclones
[Index]
Main Index Home Page Stock Weather Photos Extreme Storms Discussion Storm News and Storm Chasing Reports Tropical Cyclones / Hurricanes / Typhoons Weather Data and Links Wild Fires / Bushfires Weather Observation Techniques Weather Picture Catalogue Tornado Pictures and Reports Stock Video Footage and DVDs for sale
Season 2014-2015 Tropical Cyclone OLWYN Track Map
Season 2014-2015 Summaries: [BoM-AU] [JTWC-AU] [JTWC-SIO] [JTWC-SPAC] [JTWC-SH]
<<- Previous TC | JTWC 2014-2015 Season | Next TC ->>

click for intensity scale information  Lat/long Grid: Show Hide

 Date Labels: Show Hide

Joint Typhoon Warning Centre Cyclone Data

Name: OLWYN

10 Mar 2015 00:00 UTC to 14 Mar 2015 00:00 UTC

    date/time    lat    long     hPa   cat  kts
2015-03-10 00   13.7   115.8    1000         30          
2015-03-10 06   14.3   116.1    1000         30          
2015-03-10 12   14.8   116.2    1000         30          
2015-03-10 18   15.3   116.3    1000         30          
2015-03-11 00   15.8   116.2     993    1    40          
2015-03-11 06   16.5   116.0     993    1    40          
2015-03-11 12   17.1   115.7     989    1    45          
2015-03-11 18   17.8   115.3     982    2    55          
2015-03-11 18   17.8   115.3     982    2    55          
2015-03-12 00   18.6   115.0     978    2    60          
2015-03-12 00   18.6   115.0     978    2    60          
2015-03-12 06   19.9   114.6     970    2    70          
2015-03-12 06   19.9   114.6     970    2    70          
2015-03-12 12   21.1   114.1     967    3    75          
2015-03-12 12   21.1   114.1     967    3    75          
2015-03-12 12   21.1   114.1     967    3    75          
2015-03-12 18   22.2   113.8     963    3    80          
2015-03-12 18   22.2   113.8     963    3    80          
2015-03-12 18   22.2   113.8     963    3    80          
2015-03-13 00   23.6   113.6     956    3    90          
2015-03-13 00   23.6   113.6     956    3    90          
2015-03-13 00   23.6   113.6     956    3    90          
2015-03-13 06   24.9   113.4     963    3    80          
2015-03-13 06   24.9   113.4     963    3    80          
2015-03-13 06   24.9   113.4     963    3    80          
2015-03-13 12   26.1   113.9     974    2    65          
2015-03-13 12   26.1   113.9     974    2    65          
2015-03-13 18   27.9   114.8     982    2    55          
2015-03-13 18   27.9   114.8     982    2    55          
2015-03-14 00   29.9   116.1     989    1    45          
Winds are 1-min average.

Tropical cyclone tracks developed by Michael Bath using data from the Joint Typhoon Warning Centre Best Tracks and Google Maps.


[Australian Severe Weather index] [Copyright Notice] [Email Contacts] [Search This Site] [Privacy Policy]
Document: tropical_cyclone_olwyn.htm Updated: 28 June 2017